createdAt,value
2022-11-25T00:01:10.292Z,93.79
2022-11-25T00:03:37.255Z,94.40
2022-11-25T00:06:21.347Z,94.38
2022-11-25T00:08:50.925Z,94.13
2022-11-25T00:11:18.193Z,94.76
2022-11-25T00:13:46.704Z,94.40
2022-11-25T00:16:16.212Z,94.59
2022-11-25T00:18:53.821Z,93.87
2022-11-25T00:21:27.195Z,94.88
2022-11-25T00:23:56.117Z,95.10
2022-11-25T00:26:25.052Z,94.79
2022-11-25T00:28:52.539Z,94.77
2022-11-25T00:31:25.419Z,94.31
2022-11-25T00:33:52.774Z,95.05
2022-11-25T00:36:23.305Z,94.61
2022-11-25T00:39:01.509Z,94.89
2022-11-25T00:41:48.002Z,94.50
2022-11-25T00:44:35.278Z,94.91
2022-11-25T00:47:04.159Z,95.02
2022-11-25T00:49:31.458Z,94.95
2022-11-25T00:51:58.247Z,94.75
2022-11-25T00:54:25.300Z,94.76
2022-11-25T00:56:55.259Z,94.70
2022-11-25T00:59:22.270Z,94.58
2022-11-25T01:01:50.192Z,94.46
2022-11-25T01:04:17.217Z,94.30
2022-11-25T01:06:44.270Z,94.03
2022-11-25T01:09:12.816Z,94.18
2022-11-25T01:11:40.012Z,94.15
2022-11-25T01:14:07.351Z,94.08
2022-11-25T01:16:34.037Z,93.97
2022-11-25T01:19:01.953Z,94.21
2022-11-25T01:21:31.878Z,94.48
2022-11-25T01:24:02.586Z,94.41
2022-11-25T01:26:30.358Z,94.00
2022-11-25T01:29:00.308Z,94.08
2022-11-25T01:31:32.302Z,93.94
2022-11-25T01:34:12.247Z,93.97
2022-11-25T01:36:38.927Z,93.64
2022-11-25T01:39:06.313Z,94.20
2022-11-25T01:41:34.511Z,94.20
2022-11-25T01:44:15.189Z,93.75
2022-11-25T01:46:56.846Z,93.62
2022-11-25T01:49:46.541Z,93.73
2022-11-25T01:52:36.223Z,93.55
2022-11-25T01:55:08.245Z,93.60
2022-11-25T01:57:36.509Z,93.78
2022-11-25T02:00:05.665Z,93.56
2022-11-25T02:02:32.773Z,94.00
2022-11-25T02:05:01.958Z,93.76
2022-11-25T02:07:35.509Z,93.89
2022-11-25T02:10:06.508Z,93.38
2022-11-25T02:12:35.773Z,94.38
2022-11-25T02:15:03.971Z,93.66
2022-11-25T02:17:30.729Z,93.57
2022-11-25T02:20:04.046Z,93.74
2022-11-25T02:22:53.553Z,93.73
2022-11-25T02:25:24.346Z,93.97
2022-11-25T02:28:15.681Z,93.76
2022-11-25T02:30:43.321Z,93.82
2022-11-25T02:33:10.663Z,93.91
2022-11-25T02:35:40.050Z,94.02
2022-11-25T02:38:15.665Z,93.43
2022-11-25T02:41:13.623Z,93.50
2022-11-25T02:43:41.445Z,93.99
2022-11-25T02:46:21.850Z,93.39
2022-11-25T02:51:37.543Z,93.76
2022-11-25T02:54:04.537Z,93.79
2022-11-25T02:56:34.328Z,94.02
2022-11-25T02:59:02.318Z,93.50
2022-11-25T03:01:30.085Z,94.21
2022-11-25T03:03:57.053Z,93.79
2022-11-25T03:06:24.195Z,94.12
2022-11-25T03:08:50.882Z,93.80
2022-11-25T03:11:17.777Z,93.56
2022-11-25T03:13:44.787Z,93.81
2022-11-25T03:16:11.817Z,93.78
2022-11-25T03:18:38.593Z,94.07
2022-11-25T03:21:05.412Z,93.93
2022-11-25T03:23:32.225Z,93.67
2022-11-25T03:25:59.202Z,94.20
2022-11-25T03:28:25.905Z,94.05
2022-11-25T03:30:52.753Z,93.80
2022-11-25T03:33:19.412Z,93.98
2022-11-25T03:35:48.060Z,93.97
2022-11-25T03:38:14.752Z,94.73
2022-11-25T03:40:41.498Z,94.12
2022-11-25T03:43:08.139Z,94.17
2022-11-25T03:45:34.991Z,94.42
2022-11-25T03:48:01.646Z,93.87
2022-11-25T03:50:28.355Z,94.69
2022-11-25T03:52:55.139Z,94.54
2022-11-25T03:55:21.777Z,94.09
2022-11-25T03:57:48.544Z,94.13
2022-11-25T04:00:15.566Z,93.96
2022-11-25T04:02:42.344Z,94.29
2022-11-25T04:05:09.245Z,94.07
2022-11-25T04:07:36.191Z,94.50
2022-11-25T04:10:03.262Z,94.49
2022-11-25T04:12:48.404Z,93.70
2022-11-25T04:15:16.919Z,94.26
2022-11-25T04:17:43.960Z,94.13
2022-11-25T04:20:12.832Z,93.97
2022-11-25T04:22:39.987Z,94.29
2022-11-25T04:25:07.598Z,94.70
2022-11-25T04:27:34.567Z,94.65
2022-11-25T04:30:01.203Z,94.61
2022-11-25T04:32:28.105Z,94.58
2022-11-25T04:34:54.993Z,94.92
2022-11-25T04:37:21.882Z,94.18
2022-11-25T04:39:48.795Z,94.77
2022-11-25T04:42:34.913Z,95.10
2022-11-25T04:45:23.365Z,95.01
2022-11-25T04:47:51.383Z,94.81
2022-11-25T04:50:20.735Z,94.90
2022-11-25T04:52:47.371Z,94.89
2022-11-25T04:55:14.229Z,95.43
2022-11-25T04:57:41.209Z,95.39
2022-11-25T05:00:09.610Z,95.12
2022-11-25T05:02:36.521Z,95.26
2022-11-25T05:05:03.757Z,95.27
2022-11-25T05:07:30.704Z,95.55
2022-11-25T05:09:57.772Z,95.44
2022-11-25T05:12:27.334Z,95.21
2022-11-25T05:14:54.145Z,95.53
2022-11-25T05:17:23.767Z,95.83
2022-11-25T05:19:51.128Z,95.13
2022-11-25T05:22:20.431Z,95.68
2022-11-25T05:24:47.507Z,95.41
2022-11-25T05:27:14.832Z,95.52
2022-11-25T05:29:41.481Z,95.48
2022-11-25T05:32:09.109Z,95.62
2022-11-25T05:34:36.041Z,95.80
2022-11-25T05:37:02.895Z,95.95
2022-11-25T05:39:30.206Z,95.41
2022-11-25T05:41:56.868Z,95.90
2022-11-25T05:44:23.642Z,96.08
2022-11-25T05:46:50.839Z,95.63
2022-11-25T05:49:18.771Z,96.32
2022-11-25T05:51:45.858Z,95.75
2022-11-25T05:54:12.872Z,95.99
2022-11-25T05:56:40.219Z,95.68
2022-11-25T05:59:07.547Z,95.98
2022-11-25T06:01:34.814Z,95.89
2022-11-25T06:04:02.386Z,95.84
2022-11-25T06:06:29.499Z,96.38
2022-11-25T06:08:56.558Z,95.94
2022-11-25T06:11:25.693Z,96.04
2022-11-25T06:13:58.361Z,96.29
2022-11-25T06:16:25.880Z,96.22
2022-11-25T06:18:52.747Z,96.33
2022-11-25T06:21:19.973Z,96.01
2022-11-25T06:23:46.824Z,96.19
2022-11-25T06:26:19.731Z,96.27
2022-11-25T06:28:47.359Z,96.68
2022-11-25T06:31:17.233Z,96.42
2022-11-25T06:33:47.040Z,96.51
2022-11-25T06:36:17.446Z,96.47
2022-11-25T06:38:49.572Z,96.62
2022-11-25T06:41:17.314Z,96.24
2022-11-25T06:43:44.463Z,96.80
2022-11-25T06:46:14.087Z,96.30
2022-11-25T06:48:41.465Z,97.00
2022-11-25T06:51:11.486Z,96.81
2022-11-25T06:53:39.555Z,97.00
2022-11-25T06:56:06.599Z,96.54
2022-11-25T06:58:36.129Z,96.16
2022-11-25T07:01:09.199Z,97.19
2022-11-25T07:03:35.999Z,96.90
2022-11-25T07:06:03.414Z,96.61
2022-11-25T07:08:33.952Z,96.43
2022-11-25T07:11:19.391Z,96.76
2022-11-25T07:13:47.278Z,96.80
2022-11-25T07:16:14.801Z,96.45
2022-11-25T07:18:42.130Z,97.14
2022-11-25T07:21:17.373Z,96.29
2022-11-25T07:23:45.436Z,97.26
2022-11-25T07:26:14.937Z,97.11
2022-11-25T07:28:42.450Z,96.45
2022-11-25T07:31:28.094Z,96.76
2022-11-25T07:34:20.624Z,96.54
2022-11-25T07:36:48.879Z,96.64
2022-11-25T07:39:19.062Z,97.06
2022-11-25T07:41:46.581Z,96.70
2022-11-25T07:44:14.685Z,96.72
2022-11-25T07:46:43.621Z,97.25
2022-11-25T07:49:13.938Z,96.60
2022-11-25T07:51:55.761Z,96.82
2022-11-25T07:54:23.366Z,97.20
2022-11-25T07:56:50.896Z,97.11
2022-11-25T07:59:20.351Z,97.11
2022-11-25T08:01:49.786Z,96.48
2022-11-25T08:04:20.470Z,96.47
2022-11-25T08:06:50.258Z,96.62
2022-11-25T08:09:22.937Z,96.11
2022-11-25T08:11:50.417Z,96.71
2022-11-25T08:14:17.458Z,96.86
2022-11-25T08:16:44.691Z,97.11
2022-11-25T08:19:14.542Z,96.58
2022-11-25T08:21:41.885Z,96.73
2022-11-25T08:24:20.214Z,96.69
2022-11-25T08:26:47.463Z,97.18
2022-11-25T08:29:16.565Z,96.90
2022-11-25T08:31:43.767Z,96.79
2022-11-25T08:34:18.473Z,97.13
2022-11-25T08:36:48.217Z,97.06
2022-11-25T08:39:50.373Z,96.85
2022-11-25T08:42:04.802Z,97.00
2022-11-25T08:44:31.499Z,96.70
2022-11-25T08:46:58.289Z,96.52
2022-11-25T08:49:27.120Z,96.17
2022-11-25T08:51:53.807Z,95.79
2022-11-25T08:54:20.494Z,95.95
2022-11-25T08:56:47.448Z,96.39
2022-11-25T08:59:14.084Z,95.67
2022-11-25T09:01:40.852Z,95.64
2022-11-25T09:04:07.617Z,95.79
2022-11-25T09:06:34.282Z,96.17
2022-11-25T09:09:01.933Z,95.51
2022-11-25T09:11:28.961Z,95.56
2022-11-25T09:13:55.911Z,95.93
2022-11-25T09:16:22.756Z,95.66
2022-11-25T09:18:55.298Z,96.05
2022-11-25T09:21:22.690Z,95.94
2022-11-25T09:23:51.670Z,96.09
2022-11-25T09:26:30.029Z,95.70
2022-11-25T09:28:57.996Z,96.08
2022-11-25T09:31:25.066Z,95.70
2022-11-25T09:33:51.985Z,95.10
2022-11-25T09:36:20.869Z,95.29
2022-11-25T09:38:47.668Z,95.71
2022-11-25T09:41:54.248Z,94.44
2022-11-25T09:44:46.187Z,93.92
2022-11-25T09:47:20.547Z,94.65
2022-11-25T09:50:00.234Z,93.56
2022-11-25T09:52:56.985Z,93.15
2022-11-25T09:55:24.757Z,91.73
2022-11-25T09:58:13.148Z,88.24
2022-11-25T10:00:46.594Z,87.42
2022-11-25T10:03:29.556Z,86.93
2022-11-25T10:06:05.319Z,86.01
2022-11-25T10:08:40.707Z,86.38
2022-11-25T10:11:35.949Z,86.73
2022-11-25T10:14:33.430Z,86.76
2022-11-25T10:17:18.641Z,86.94
2022-11-25T10:20:01.784Z,86.86
2022-11-25T10:22:35.308Z,84.50
2022-11-25T10:25:26.379Z,81.97
2022-11-25T10:28:04.848Z,82.61
2022-11-25T10:30:52.857Z,81.65
2022-11-25T10:33:31.831Z,80.75
2022-11-25T10:36:20.387Z,80.29
2022-11-25T10:39:03.576Z,81.16
2022-11-25T10:41:43.348Z,79.06
2022-11-25T10:44:35.501Z,78.67
2022-11-25T10:47:24.444Z,76.68
2022-11-25T10:50:17.690Z,75.93
2022-11-25T10:53:17.171Z,71.60
2022-11-25T10:56:03.605Z,72.27
2022-11-25T10:58:34.759Z,69.92
2022-11-25T11:01:04.404Z,66.76
2022-11-25T11:03:31.345Z,64.09
2022-11-25T11:05:58.382Z,64.96
2022-11-25T11:08:28.936Z,64.19
2022-11-25T11:11:21.570Z,61.56
2022-11-25T11:13:50.761Z,59.67
2022-11-25T11:16:41.603Z,58.55
2022-11-25T11:19:29.258Z,57.49
2022-11-25T11:21:57.696Z,57.50
2022-11-25T11:24:34.645Z,56.46
2022-11-25T11:30:22.032Z,54.99
2022-11-25T11:35:32.271Z,54.91
2022-11-25T11:38:32.519Z,54.67
2022-11-25T11:41:22.178Z,55.12
2022-11-25T12:18:53.458Z,51.26
2022-11-25T12:21:26.317Z,51.28
2022-11-25T12:24:32.419Z,49.81
2022-11-25T12:27:45.151Z,49.75
2022-11-25T12:30:22.809Z,48.86
2022-11-25T12:33:24.483Z,49.62
2022-11-25T12:36:10.758Z,50.24
2022-11-25T12:39:15.157Z,48.77
2022-11-25T12:42:21.292Z,48.50
2022-11-25T13:01:07.391Z,52.27
2022-11-25T13:46:45.836Z,67.08
2022-11-25T13:49:32.999Z,68.07
2022-11-25T13:52:26.298Z,69.64
2022-11-25T13:54:54.654Z,70.19
2022-11-25T13:57:30.547Z,71.54
2022-11-25T14:00:20.676Z,72.25
2022-11-25T14:02:49.966Z,72.38
2022-11-25T14:32:34.134Z,74.62
2022-11-25T14:35:20.643Z,74.77
2022-11-25T14:37:57.037Z,74.56
2022-11-25T14:40:31.738Z,74.85
2022-11-25T14:45:39.726Z,74.36
2022-11-25T14:48:22.000Z,75.31
2022-11-25T14:51:03.794Z,75.56
2022-11-25T14:53:31.337Z,76.83
2022-11-25T14:59:14.091Z,77.44
2022-11-25T15:01:58.677Z,78.05
2022-11-25T15:04:32.885Z,78.13
2022-11-25T15:10:34.407Z,78.67
2022-11-25T15:13:24.142Z,78.32
2022-11-25T15:15:58.790Z,78.31
2022-11-25T15:18:26.153Z,78.81
2022-11-25T15:24:54.741Z,78.88
2022-11-25T15:27:28.124Z,78.71
2022-11-25T15:29:56.925Z,79.51
2022-11-25T15:33:16.031Z,79.49
2022-11-25T15:35:42.873Z,79.94
2022-11-25T15:38:45.112Z,79.85
2022-11-25T15:41:30.388Z,79.86
2022-11-25T16:05:37.711Z,83.76
2022-11-25T16:08:25.725Z,83.83
2022-11-25T16:10:59.629Z,84.14
2022-11-25T16:13:31.338Z,84.27
2022-11-25T16:15:57.968Z,84.22
2022-11-25T16:18:40.206Z,83.75
2022-11-25T16:21:15.613Z,84.36
2022-11-25T16:45:27.249Z,84.53
2022-11-25T16:48:09.563Z,84.57
2022-11-25T16:50:36.321Z,84.62
2022-11-25T16:53:03.126Z,85.37
2022-11-25T16:55:31.039Z,85.67
2022-11-25T16:58:04.421Z,86.01
2022-11-25T17:00:32.183Z,85.48
2022-11-25T17:03:06.088Z,86.98
2022-11-25T17:08:14.285Z,87.15
2022-11-25T17:24:12.325Z,88.23
2022-11-25T17:26:42.400Z,88.57
2022-11-25T17:29:19.948Z,88.17
2022-11-25T17:31:46.994Z,89.12
2022-11-25T17:34:16.875Z,88.50
2022-11-25T17:36:45.247Z,89.02
2022-11-25T17:39:13.150Z,88.52
2022-11-25T17:41:47.591Z,87.80
2022-11-25T17:44:25.530Z,88.34
2022-11-25T17:46:53.973Z,88.07
2022-11-25T17:49:21.071Z,87.04
2022-11-25T17:51:47.954Z,87.24
2022-11-25T17:54:15.295Z,87.33
2022-11-25T17:56:47.779Z,87.56
2022-11-25T17:59:25.639Z,87.52
2022-11-25T18:01:52.454Z,87.14
2022-11-25T18:06:54.616Z,88.51
2022-11-25T18:25:30.326Z,89.05
2022-11-25T18:27:59.974Z,89.64
2022-11-25T18:30:29.660Z,89.82
2022-11-25T18:32:57.445Z,89.59
2022-11-25T18:35:35.786Z,89.16
2022-11-25T18:38:03.345Z,89.58
2022-11-25T18:40:30.521Z,90.21
2022-11-25T18:43:00.970Z,90.73
2022-11-25T18:50:46.310Z,90.98
2022-11-25T18:53:13.772Z,90.51
2022-11-25T18:58:23.815Z,91.33
2022-11-25T19:06:15.354Z,91.16
2022-11-25T19:08:42.218Z,90.99
2022-11-25T19:11:40.136Z,90.59
2022-11-25T19:14:37.774Z,91.66
2022-11-25T19:17:09.967Z,90.72
2022-11-25T19:19:37.974Z,90.81
2022-11-25T19:22:15.890Z,90.93
2022-11-25T19:32:44.388Z,91.67
2022-11-25T19:35:16.183Z,91.60
2022-11-25T19:37:42.995Z,91.82
2022-11-25T19:40:17.840Z,91.63
2022-11-25T19:42:48.579Z,92.52
2022-11-25T19:45:19.618Z,92.53
2022-11-25T19:47:49.933Z,92.84
2022-11-25T19:55:34.305Z,92.30
2022-11-25T20:05:59.980Z,92.97
2022-11-25T20:08:28.970Z,92.92
2022-11-25T20:21:40.119Z,93.74
2022-11-25T20:24:14.494Z,93.82
2022-11-25T20:26:46.119Z,93.12
2022-11-25T20:29:19.000Z,93.65
2022-11-25T20:31:46.629Z,93.57
2022-11-25T20:34:13.475Z,93.79
2022-11-25T20:36:42.121Z,93.80
2022-11-25T20:39:18.483Z,94.08
2022-11-25T20:41:52.790Z,93.93
2022-11-25T20:44:20.454Z,93.93
2022-11-25T20:46:47.366Z,94.19
2022-11-25T20:49:23.315Z,94.04
2022-11-25T20:51:49.897Z,93.87
2022-11-25T20:54:17.850Z,94.07
2022-11-25T20:56:44.632Z,94.10
2022-11-25T20:59:22.542Z,94.15
2022-11-25T21:01:51.035Z,94.62
2022-11-25T21:04:18.618Z,94.58
2022-11-25T21:06:46.033Z,94.19
2022-11-25T21:15:16.143Z,93.79
2022-11-25T21:17:43.334Z,94.26
2022-11-25T21:22:42.623Z,94.07
2022-11-25T21:25:13.833Z,94.79
2022-11-25T21:27:41.268Z,94.56
2022-11-25T21:30:23.973Z,94.34
2022-11-25T21:35:23.055Z,94.70
2022-11-25T21:37:50.173Z,94.26
2022-11-25T21:40:26.924Z,94.58
2022-11-25T21:42:54.211Z,94.45
2022-11-25T21:45:35.534Z,94.15
2022-11-25T21:48:02.311Z,94.59
2022-11-25T21:50:30.082Z,95.18
2022-11-25T21:52:57.439Z,94.60
2022-11-25T21:55:29.072Z,94.62
2022-11-25T21:57:56.002Z,94.36
2022-11-25T22:00:26.321Z,94.51
2022-11-25T22:02:53.594Z,94.76
2022-11-25T22:05:22.330Z,94.59
2022-11-25T22:07:49.157Z,94.34
2022-11-25T22:10:17.002Z,94.35
2022-11-25T22:12:46.733Z,94.71
2022-11-25T22:15:18.815Z,94.72
2022-11-25T22:17:46.235Z,94.75
2022-11-25T22:20:28.126Z,94.40
2022-11-25T22:22:55.561Z,94.29
2022-11-25T22:25:26.966Z,94.45
2022-11-25T22:27:54.018Z,94.75
2022-11-25T22:30:22.571Z,94.85
2022-11-25T22:33:10.632Z,94.45
2022-11-25T22:35:37.328Z,94.72
2022-11-25T22:38:13.495Z,95.49
2022-11-25T22:40:42.388Z,94.87
2022-11-25T22:43:19.032Z,95.46
2022-11-25T22:45:46.510Z,95.06
2022-11-25T22:48:19.300Z,95.31
2022-11-25T22:50:46.755Z,95.48
2022-11-25T22:53:15.797Z,94.96
2022-11-25T22:55:42.871Z,95.21
2022-11-25T22:58:11.117Z,95.41
2022-11-25T23:00:42.852Z,95.63
2022-11-25T23:03:33.429Z,95.86
2022-11-25T23:06:01.969Z,95.43
2022-11-25T23:08:31.977Z,94.83
2022-11-25T23:10:58.929Z,95.42
2022-11-25T23:13:28.495Z,95.53
2022-11-25T23:16:04.442Z,95.66
2022-11-25T23:18:41.226Z,95.49
2022-11-25T23:21:23.835Z,95.61
2022-11-25T23:23:51.302Z,95.55
2022-11-25T23:26:18.739Z,96.10
2022-11-25T23:28:45.819Z,95.79
2022-11-25T23:31:17.463Z,95.76
2022-11-25T23:33:47.646Z,95.80
2022-11-25T23:36:26.081Z,95.61
2022-11-25T23:38:56.565Z,95.78
2022-11-25T23:41:29.406Z,95.50
2022-11-25T23:43:56.537Z,95.36
2022-11-25T23:46:28.407Z,95.84
2022-11-25T23:48:57.530Z,95.85
2022-11-25T23:51:25.345Z,95.72
2022-11-25T23:53:52.513Z,95.80
2022-11-25T23:56:19.858Z,95.25
2022-11-25T23:58:47.682Z,95.79
